createdAt,value
2023-05-01T00:01:52.402Z,3.83
2023-05-01T00:04:19.345Z,3.74
2023-05-01T00:06:46.248Z,3.76
2023-05-01T00:09:12.936Z,3.74
2023-05-01T00:11:39.526Z,3.56
2023-05-01T00:14:06.206Z,3.65
2023-05-01T00:16:32.753Z,3.85
2023-05-01T00:18:59.272Z,3.93
2023-05-01T00:21:25.845Z,3.85
2023-05-01T00:23:52.489Z,3.88
2023-05-01T00:26:19.005Z,3.68
2023-05-01T00:28:48.329Z,3.79
2023-05-01T00:31:15.425Z,3.95
2023-05-01T00:33:42.004Z,3.86
2023-05-01T00:36:09.191Z,3.95
2023-05-01T00:38:35.704Z,4.06
2023-05-01T00:41:02.242Z,4.06
2023-05-01T00:43:28.785Z,3.88
2023-05-01T00:45:55.389Z,4.41
2023-05-01T00:48:22.007Z,4.09
2023-05-01T00:50:49.105Z,4.04
2023-05-01T00:53:15.785Z,4.33
2023-05-01T00:55:42.806Z,4.24
2023-05-01T00:58:11.129Z,4.13
2023-05-01T01:00:38.052Z,4.42
2023-05-01T01:03:04.943Z,4.20
2023-05-01T01:05:35.885Z,4.35
2023-05-01T01:08:08.580Z,4.41
2023-05-01T01:10:35.087Z,4.22
2023-05-01T01:13:20.254Z,4.08
2023-05-01T01:16:06.068Z,4.60
2023-05-01T01:18:49.026Z,4.41
2023-05-01T01:21:21.987Z,4.22
2023-05-01T01:24:07.349Z,4.43
2023-05-01T01:26:34.359Z,4.31
2023-05-01T01:29:19.017Z,4.49
2023-05-01T01:32:16.033Z,4.36
2023-05-01T01:34:43.794Z,4.35
2023-05-01T01:37:20.876Z,4.58
2023-05-01T01:39:58.077Z,4.54
2023-05-01T01:42:36.311Z,4.37
2023-05-01T01:45:10.776Z,4.45
2023-05-01T01:47:41.650Z,4.46
2023-05-01T01:50:11.233Z,4.39
2023-05-01T01:52:41.388Z,4.38
2023-05-01T01:55:13.458Z,4.70
2023-05-01T01:57:43.796Z,4.57
2023-05-01T02:00:11.408Z,4.78
2023-05-01T02:02:45.425Z,4.52
2023-05-01T02:05:14.791Z,4.34
2023-05-01T02:07:43.233Z,4.51
2023-05-01T02:10:12.622Z,4.42
2023-05-01T02:12:40.223Z,4.47
2023-05-01T02:15:08.087Z,4.77
2023-05-01T02:17:35.677Z,4.63
2023-05-01T02:20:05.430Z,4.42
2023-05-01T02:22:32.486Z,4.60
2023-05-01T02:25:01.081Z,4.82
2023-05-01T02:27:32.310Z,4.76
2023-05-01T02:29:59.162Z,5.05
2023-05-01T02:32:26.467Z,4.38
2023-05-01T02:34:53.296Z,4.68
2023-05-01T02:37:20.840Z,4.99
2023-05-01T02:39:47.726Z,4.59
2023-05-01T02:42:17.059Z,5.05
2023-05-01T02:44:48.789Z,5.41
2023-05-01T02:47:18.323Z,4.86
2023-05-01T02:49:48.017Z,4.84
2023-05-01T02:52:18.676Z,4.80
2023-05-01T02:54:48.296Z,5.00
2023-05-01T02:57:17.059Z,5.19
2023-05-01T02:59:43.678Z,4.97
2023-05-01T03:02:10.232Z,4.67
2023-05-01T03:04:36.838Z,4.97
2023-05-01T03:07:04.692Z,4.86
2023-05-01T03:09:31.792Z,4.97
2023-05-01T03:11:58.318Z,5.18
2023-05-01T03:14:25.191Z,5.00
2023-05-01T03:16:51.908Z,5.15
2023-05-01T03:19:18.512Z,4.83
2023-05-01T03:21:45.064Z,5.07
2023-05-01T03:24:11.795Z,5.15
2023-05-01T03:26:38.584Z,5.01
2023-05-01T03:29:05.164Z,4.96
2023-05-01T03:31:31.791Z,4.91
2023-05-01T03:33:59.742Z,5.09
2023-05-01T03:36:27.642Z,5.02
2023-05-01T03:38:54.561Z,5.25
2023-05-01T03:41:39.512Z,4.83
2023-05-01T03:44:35.628Z,5.57
2023-05-01T03:47:02.372Z,5.38
2023-05-01T03:49:29.088Z,5.41
2023-05-01T03:51:55.767Z,5.53
2023-05-01T03:54:23.038Z,5.61
2023-05-01T03:56:58.513Z,5.16
2023-05-01T03:59:25.195Z,5.27
2023-05-01T04:01:52.007Z,5.52
2023-05-01T04:04:18.874Z,5.38
2023-05-01T04:06:51.963Z,5.52
2023-05-01T04:09:19.493Z,5.49
2023-05-01T04:11:47.153Z,5.36
2023-05-01T04:14:13.675Z,5.55
2023-05-01T04:16:40.730Z,5.20
2023-05-01T04:19:09.202Z,5.07
2023-05-01T04:21:40.154Z,5.40
2023-05-01T04:24:06.683Z,5.59
2023-05-01T04:26:33.296Z,5.76
2023-05-01T04:29:01.490Z,5.39
2023-05-01T04:31:28.197Z,5.66
2023-05-01T04:33:54.829Z,5.93
2023-05-01T04:36:21.770Z,5.86
2023-05-01T04:38:48.747Z,5.48
2023-05-01T04:41:16.648Z,5.71
2023-05-01T04:43:44.471Z,5.54
2023-05-01T04:46:12.189Z,5.62
2023-05-01T04:48:38.786Z,6.07
2023-05-01T04:51:05.421Z,6.20
2023-05-01T04:53:34.008Z,6.21
2023-05-01T04:56:02.192Z,6.32
2023-05-01T04:58:32.109Z,6.03
2023-05-01T05:01:04.287Z,6.35
2023-05-01T05:03:30.886Z,6.16
2023-05-01T05:05:57.507Z,6.45
2023-05-01T05:08:24.203Z,6.15
2023-05-01T05:10:59.856Z,5.67
2023-05-01T05:13:30.461Z,6.05
2023-05-01T05:16:00.973Z,6.03
2023-05-01T05:18:28.076Z,6.29
2023-05-01T05:20:55.892Z,6.52
2023-05-01T05:23:23.041Z,6.57
2023-05-01T05:25:50.167Z,6.27
2023-05-01T05:28:17.172Z,6.33
2023-05-01T05:30:44.304Z,6.48
2023-05-01T05:33:15.395Z,6.16
2023-05-01T05:35:42.146Z,6.22
2023-05-01T05:38:08.771Z,6.44
2023-05-01T05:40:39.022Z,6.91
2023-05-01T05:43:05.697Z,6.18
2023-05-01T05:45:34.345Z,6.16
2023-05-01T05:48:01.342Z,6.31
2023-05-01T05:50:30.482Z,6.16
2023-05-01T05:52:57.727Z,6.24
2023-05-01T05:55:24.529Z,6.07
2023-05-01T05:58:01.669Z,6.29
2023-05-01T06:00:29.105Z,6.73
2023-05-01T06:02:58.072Z,6.21
2023-05-01T06:05:27.727Z,6.37
2023-05-01T06:07:54.880Z,6.60
2023-05-01T06:10:21.550Z,6.66
2023-05-01T06:12:50.876Z,6.34
2023-05-01T06:15:24.708Z,6.74
2023-05-01T06:17:53.840Z,6.72
2023-05-01T06:20:20.459Z,6.56
2023-05-01T06:22:49.724Z,6.97
2023-05-01T06:25:27.946Z,6.63
2023-05-01T06:27:54.560Z,6.59
2023-05-01T06:30:23.271Z,6.64
2023-05-01T06:32:50.214Z,6.75
2023-05-01T06:35:16.995Z,6.78
2023-05-01T06:37:43.533Z,6.74
2023-05-01T06:40:11.608Z,6.98
2023-05-01T06:42:39.667Z,7.11
2023-05-01T06:45:07.259Z,6.98
2023-05-01T06:47:33.945Z,7.01
2023-05-01T06:50:02.860Z,6.88
2023-05-01T06:52:33.279Z,6.80
2023-05-01T06:54:59.808Z,6.85
2023-05-01T06:57:26.513Z,6.90
2023-05-01T06:59:53.999Z,6.62
2023-05-01T07:02:21.030Z,7.06
2023-05-01T07:04:47.784Z,6.73
2023-05-01T07:07:14.542Z,7.11
2023-05-01T07:09:41.376Z,7.19
2023-05-01T07:12:08.749Z,7.32
2023-05-01T07:14:35.737Z,7.40
2023-05-01T07:17:03.826Z,7.08
2023-05-01T07:19:30.497Z,7.10
2023-05-01T07:21:57.086Z,7.08
2023-05-01T07:24:23.677Z,7.17
2023-05-01T07:26:50.470Z,6.93
2023-05-01T07:29:17.164Z,7.24
2023-05-01T07:31:44.271Z,6.89
2023-05-01T07:34:11.479Z,6.73
2023-05-01T07:36:38.663Z,6.76
2023-05-01T07:39:06.591Z,6.68
2023-05-01T07:41:33.224Z,6.88
2023-05-01T07:43:59.911Z,7.10
2023-05-01T07:46:27.078Z,6.58
2023-05-01T07:48:53.833Z,6.05
2023-05-01T07:51:20.530Z,6.32
2023-05-01T07:53:47.935Z,6.01
2023-05-01T07:56:14.959Z,5.50
2023-05-01T07:58:42.671Z,5.87
2023-05-01T08:01:09.405Z,5.76
2023-05-01T08:03:36.394Z,5.91
2023-05-01T08:06:03.244Z,6.08
2023-05-01T08:10:56.550Z,6.10
2023-05-01T08:13:23.210Z,6.22
2023-05-01T08:15:50.010Z,6.48
2023-05-01T08:18:21.118Z,6.80
2023-05-01T08:20:48.544Z,6.69
2023-05-01T08:23:15.730Z,6.74
2023-05-01T08:25:42.305Z,6.96
2023-05-01T08:28:09.413Z,6.91
2023-05-01T08:30:36.953Z,6.93
2023-05-01T08:33:03.686Z,7.48
2023-05-01T08:35:30.527Z,7.55
2023-05-01T08:37:57.965Z,7.54
2023-05-01T08:40:26.038Z,7.53
2023-05-01T08:42:52.716Z,7.08
2023-05-01T08:45:20.138Z,7.28
2023-05-01T08:47:48.547Z,7.20
2023-05-01T08:50:16.624Z,7.29
2023-05-01T08:52:43.992Z,7.40
2023-05-01T08:55:13.036Z,7.52
2023-05-01T08:57:44.169Z,7.75
2023-05-01T09:00:16.777Z,7.35
2023-05-01T09:02:44.338Z,7.40
2023-05-01T09:05:11.346Z,7.22
2023-05-01T09:07:38.772Z,8.02
2023-05-01T09:10:05.700Z,7.70
2023-05-01T09:12:35.428Z,7.98
2023-05-01T09:15:03.177Z,7.31
2023-05-01T09:17:32.224Z,7.52
2023-05-01T09:20:01.710Z,7.49
2023-05-01T09:22:30.340Z,7.76
2023-05-01T09:24:56.909Z,7.39
2023-05-01T09:27:23.774Z,7.50
2023-05-01T09:29:50.445Z,7.42
2023-05-01T09:32:17.126Z,8.14
2023-05-01T09:34:44.739Z,7.71
2023-05-01T09:37:14.539Z,7.88
2023-05-01T09:39:41.072Z,7.53
2023-05-01T09:42:07.803Z,7.41
2023-05-01T09:44:41.170Z,7.82
2023-05-01T09:47:08.222Z,7.58
2023-05-01T09:49:45.097Z,7.28
2023-05-01T09:52:12.007Z,7.81
2023-05-01T09:54:38.587Z,7.45
2023-05-01T09:57:05.474Z,7.32
2023-05-01T09:59:34.334Z,7.55
2023-05-01T10:02:01.470Z,7.63
2023-05-01T10:04:35.025Z,7.85
2023-05-01T10:07:14.416Z,7.36
2023-05-01T10:09:42.226Z,7.12
2023-05-01T10:12:08.835Z,7.66
2023-05-01T10:14:48.971Z,7.51
2023-05-01T10:17:19.917Z,7.39
2023-05-01T10:19:50.018Z,7.75
2023-05-01T10:22:17.450Z,7.26
2023-05-01T10:24:46.031Z,7.43
2023-05-01T10:27:13.381Z,7.00
2023-05-01T10:29:41.260Z,7.43
2023-05-01T10:32:09.442Z,7.62
2023-05-01T10:34:38.467Z,7.20
2023-05-01T10:37:10.301Z,7.46
2023-05-01T10:39:37.265Z,7.51
2023-05-01T10:42:13.940Z,7.48
2023-05-01T10:44:41.750Z,7.25
2023-05-01T10:47:31.317Z,6.77
2023-05-01T10:50:04.587Z,7.31
2023-05-01T10:52:31.456Z,7.39
2023-05-01T10:55:17.131Z,7.60
2023-05-01T10:57:44.740Z,7.40
2023-05-01T11:00:11.463Z,7.36
2023-05-01T11:02:38.167Z,7.65
2023-05-01T11:05:04.909Z,7.62
2023-05-01T11:07:33.768Z,7.57
2023-05-01T11:10:02.061Z,7.55
2023-05-01T11:12:47.126Z,7.44
2023-05-01T11:15:30.442Z,6.59
2023-05-01T11:17:58.000Z,6.92
2023-05-01T11:20:24.590Z,7.78
2023-05-01T11:22:55.679Z,7.96
2023-05-01T11:25:23.832Z,7.71
2023-05-01T11:27:52.992Z,7.73
2023-05-01T11:30:20.265Z,7.90
2023-05-01T11:32:48.716Z,7.54
2023-05-01T11:35:28.178Z,6.92
2023-05-01T11:37:57.496Z,6.56
2023-05-01T11:40:24.114Z,7.63
2023-05-01T11:42:51.917Z,7.85
2023-05-01T11:45:19.617Z,8.33
2023-05-01T11:47:46.266Z,8.65
2023-05-01T11:50:13.331Z,8.30
2023-05-01T11:52:43.256Z,8.45
2023-05-01T11:55:10.790Z,8.76
2023-05-01T11:57:47.315Z,8.58
2023-05-01T12:00:25.733Z,8.07
2023-05-01T12:02:57.410Z,8.02
2023-05-01T12:05:24.883Z,7.96
2023-05-01T12:07:51.505Z,7.42
2023-05-01T12:10:18.520Z,7.19
2023-05-01T12:12:45.574Z,7.13
2023-05-01T12:15:12.274Z,6.34
2023-05-01T12:17:38.994Z,7.02
2023-05-01T12:20:06.048Z,7.28
2023-05-01T12:22:32.991Z,6.74
2023-05-01T12:25:00.837Z,6.58
2023-05-01T12:27:27.416Z,6.91
2023-05-01T12:29:55.024Z,6.89
2023-05-01T12:32:29.361Z,6.83
2023-05-01T12:34:56.665Z,6.70
2023-05-01T12:37:29.594Z,6.71
2023-05-01T12:39:57.429Z,7.55
2023-05-01T12:42:24.186Z,7.78
2023-05-01T12:44:59.547Z,7.04
2023-05-01T12:47:27.100Z,6.61
2023-05-01T12:50:01.598Z,6.28
2023-05-01T12:52:28.193Z,5.99
2023-05-01T12:55:02.165Z,6.33
2023-05-01T12:57:28.781Z,5.88
2023-05-01T13:00:03.218Z,6.09
2023-05-01T13:02:31.857Z,5.86
2023-05-01T13:05:09.438Z,5.51
2023-05-01T13:07:36.993Z,4.96
2023-05-01T13:10:06.046Z,4.87
2023-05-01T13:12:33.106Z,4.81
2023-05-01T13:15:00.194Z,4.43
2023-05-01T13:17:31.181Z,3.88
2023-05-01T13:20:03.330Z,3.98
2023-05-01T13:22:34.027Z,3.39
2023-05-01T13:25:02.322Z,2.93
2023-05-01T13:27:29.095Z,2.66
2023-05-01T13:29:57.867Z,2.82
2023-05-01T13:32:25.305Z,3.01
2023-05-01T13:34:53.960Z,3.42
2023-05-01T13:37:21.360Z,3.48
2023-05-01T13:39:48.345Z,3.61
2023-05-01T13:42:23.321Z,3.34
2023-05-01T13:44:56.600Z,3.26
2023-05-01T13:47:28.021Z,3.51
2023-05-01T13:49:55.099Z,3.65
2023-05-01T13:52:21.764Z,4.14
2023-05-01T13:54:48.582Z,6.07
2023-05-01T13:57:19.161Z,6.36
2023-05-01T13:59:47.221Z,6.80
2023-05-01T14:02:22.318Z,6.23
2023-05-01T14:04:49.368Z,5.87
2023-05-01T14:07:18.349Z,5.84
2023-05-01T14:09:47.757Z,5.61
2023-05-01T14:12:17.850Z,5.71
2023-05-01T14:14:47.495Z,5.76
2023-05-01T14:17:14.420Z,5.43
2023-05-01T14:19:41.189Z,5.61
2023-05-01T14:22:08.077Z,6.42
2023-05-01T14:24:40.453Z,6.11
2023-05-01T14:27:08.130Z,6.63
2023-05-01T14:29:34.657Z,6.60
2023-05-01T14:32:04.329Z,6.86
2023-05-01T14:34:31.762Z,6.79
2023-05-01T14:36:58.515Z,6.23
2023-05-01T14:39:25.834Z,6.60
2023-05-01T14:41:55.905Z,6.18
2023-05-01T14:44:26.344Z,5.90
2023-05-01T14:46:53.032Z,5.62
2023-05-01T14:49:21.970Z,4.82
2023-05-01T14:51:49.374Z,4.61
2023-05-01T14:54:16.517Z,5.22
2023-05-01T14:56:43.726Z,5.53
2023-05-01T14:59:10.366Z,5.58
2023-05-01T15:01:37.052Z,5.74
2023-05-01T15:04:06.342Z,5.64
2023-05-01T15:06:33.790Z,5.87
2023-05-01T15:09:00.915Z,6.36
2023-05-01T15:11:27.584Z,6.51
2023-05-01T15:13:54.565Z,6.26
2023-05-01T15:16:21.213Z,5.86
2023-05-01T15:18:47.870Z,5.85
2023-05-01T15:21:14.576Z,6.42
2023-05-01T15:23:45.057Z,6.40
2023-05-01T15:26:11.953Z,6.28
2023-05-01T15:28:38.670Z,6.74
2023-05-01T15:31:05.857Z,5.61
2023-05-01T15:33:32.575Z,5.75
2023-05-01T15:35:59.229Z,5.64
2023-05-01T15:38:27.244Z,6.67
2023-05-01T15:40:54.074Z,6.74
2023-05-01T15:43:22.213Z,6.92
2023-05-01T15:45:49.803Z,7.48
2023-05-01T15:48:16.447Z,7.20
2023-05-01T15:50:43.003Z,6.62
2023-05-01T15:53:09.567Z,6.38
2023-05-01T15:55:36.811Z,6.45
2023-05-01T15:58:03.511Z,6.45
2023-05-01T16:00:30.858Z,6.31
2023-05-01T16:02:57.553Z,5.96
2023-05-01T16:05:24.857Z,5.43
2023-05-01T16:07:56.122Z,5.67
2023-05-01T16:10:23.476Z,5.80
2023-05-01T16:12:53.026Z,6.08
2023-05-01T16:15:19.650Z,6.18
2023-05-01T16:17:46.637Z,6.64
2023-05-01T16:20:14.302Z,6.17
2023-05-01T16:22:42.760Z,6.89
2023-05-01T16:25:09.874Z,6.38
2023-05-01T16:27:39.651Z,6.43
2023-05-01T16:30:07.158Z,6.44
2023-05-01T16:32:34.894Z,6.58
2023-05-01T16:35:03.339Z,7.00
2023-05-01T16:37:29.932Z,6.83
2023-05-01T16:39:59.708Z,7.13
2023-05-01T16:42:26.487Z,7.19
2023-05-01T16:44:53.119Z,7.44
2023-05-01T16:47:19.715Z,7.99
2023-05-01T16:49:46.656Z,9.00
2023-05-01T16:52:15.594Z,9.19
2023-05-01T16:54:42.192Z,9.44
2023-05-01T16:57:08.949Z,9.97
2023-05-01T16:59:35.612Z,9.60
2023-05-01T17:02:02.433Z,9.39
2023-05-01T17:04:29.318Z,9.06
2023-05-01T17:06:56.281Z,8.17
2023-05-01T17:09:23.143Z,8.28
2023-05-01T17:11:56.835Z,8.80
2023-05-01T17:14:23.867Z,8.37
2023-05-01T17:16:50.941Z,8.55
2023-05-01T17:19:17.719Z,8.51
2023-05-01T17:21:44.353Z,8.62
2023-05-01T17:24:12.845Z,9.73
2023-05-01T17:26:39.516Z,10.85
2023-05-01T17:29:06.096Z,10.49
2023-05-01T17:31:32.770Z,10.36
2023-05-01T17:33:59.398Z,10.81
2023-05-01T17:36:27.021Z,10.70
2023-05-01T17:38:54.627Z,10.75
2023-05-01T17:41:23.374Z,10.48
2023-05-01T17:43:50.081Z,11.20
2023-05-01T17:46:17.941Z,11.84
2023-05-01T17:48:44.693Z,12.24
2023-05-01T17:51:14.068Z,11.49
2023-05-01T17:53:41.433Z,10.06
2023-05-01T17:56:09.101Z,9.77
2023-05-01T17:58:35.801Z,9.70
2023-05-01T18:01:04.451Z,10.04
2023-05-01T18:03:32.749Z,10.18
2023-05-01T18:06:01.002Z,10.96
2023-05-01T18:08:27.701Z,11.55
2023-05-01T18:10:54.322Z,12.12
2023-05-01T18:13:27.637Z,11.90
2023-05-01T18:15:57.173Z,11.01
2023-05-01T18:18:24.450Z,10.28
2023-05-01T18:20:51.318Z,10.45
2023-05-01T18:23:18.775Z,10.77
2023-05-01T18:25:46.191Z,11.40
2023-05-01T18:28:16.369Z,11.70
2023-05-01T18:30:43.167Z,12.07
2023-05-01T18:33:10.139Z,13.07
2023-05-01T18:35:39.319Z,13.14
2023-05-01T18:38:05.984Z,14.15
2023-05-01T18:40:33.067Z,12.94
2023-05-01T18:42:59.793Z,13.67
2023-05-01T18:45:26.342Z,15.50
2023-05-01T18:47:52.972Z,14.96
2023-05-01T18:50:21.878Z,15.68
2023-05-01T18:52:48.712Z,15.10
2023-05-01T18:55:16.685Z,15.71
2023-05-01T18:57:44.121Z,17.15
2023-05-01T19:00:14.018Z,16.27
2023-05-01T19:02:41.196Z,16.96
2023-05-01T19:05:08.990Z,17.34
2023-05-01T19:07:35.626Z,17.52
2023-05-01T19:10:02.927Z,17.71
2023-05-01T19:12:29.933Z,17.47
2023-05-01T19:14:56.585Z,17.68
2023-05-01T19:17:23.410Z,17.90
2023-05-01T19:19:50.024Z,17.34
2023-05-01T19:22:16.746Z,18.16
2023-05-01T19:24:43.313Z,17.78
2023-05-01T19:27:09.831Z,17.13
2023-05-01T19:29:36.391Z,17.76
2023-05-01T19:32:03.317Z,17.83
2023-05-01T19:34:29.980Z,17.52
2023-05-01T19:36:57.109Z,18.64
2023-05-01T19:39:23.883Z,19.26
2023-05-01T19:41:50.955Z,17.87
2023-05-01T19:44:17.635Z,19.20
2023-05-01T19:46:44.479Z,18.76
2023-05-01T19:49:11.042Z,19.19
2023-05-01T19:51:37.739Z,19.92
2023-05-01T19:54:06.956Z,20.20
2023-05-01T19:56:34.058Z,19.71
2023-05-01T19:59:00.615Z,19.62
2023-05-01T20:01:29.663Z,20.52
2023-05-01T20:03:56.706Z,21.08
2023-05-01T20:06:23.361Z,20.61
2023-05-01T20:08:49.938Z,21.57
2023-05-01T20:11:16.452Z,21.25
2023-05-01T20:13:43.030Z,22.07
2023-05-01T20:16:09.906Z,21.23
2023-05-01T20:18:37.213Z,21.99
2023-05-01T20:21:05.924Z,21.22
2023-05-01T20:23:32.476Z,21.15
2023-05-01T20:25:59.489Z,20.66
2023-05-01T20:28:26.909Z,20.74
2023-05-01T20:30:53.477Z,21.28
2023-05-01T20:33:20.528Z,22.04
2023-05-01T20:35:47.369Z,22.16
2023-05-01T20:38:13.960Z,23.13
2023-05-01T20:40:40.747Z,23.68
2023-05-01T20:43:07.470Z,24.06
2023-05-01T20:45:34.609Z,24.17
2023-05-01T20:48:01.737Z,25.44
2023-05-01T20:50:29.195Z,25.62
2023-05-01T20:52:56.340Z,25.88
2023-05-01T20:55:23.969Z,26.41
2023-05-01T20:57:50.621Z,27.96
2023-05-01T21:00:17.433Z,26.94
2023-05-01T21:02:45.484Z,27.05
2023-05-01T21:05:12.879Z,27.50
2023-05-01T21:07:40.039Z,29.04
2023-05-01T21:10:08.819Z,28.85
2023-05-01T21:12:36.059Z,30.13
2023-05-01T21:15:03.530Z,30.58
2023-05-01T21:17:32.639Z,31.03
2023-05-01T21:19:59.801Z,31.64
2023-05-01T21:22:26.849Z,32.48
2023-05-01T21:24:57.398Z,31.97
2023-05-01T21:27:25.005Z,32.29
2023-05-01T21:29:54.921Z,31.47
2023-05-01T21:32:30.558Z,31.64
2023-05-01T21:34:57.387Z,32.67
2023-05-01T21:37:24.098Z,32.81
2023-05-01T21:39:50.947Z,32.67
2023-05-01T21:42:17.594Z,32.57
2023-05-01T21:44:44.292Z,32.53
2023-05-01T21:47:11.846Z,32.78
2023-05-01T21:49:39.797Z,33.82
2023-05-01T21:52:08.640Z,34.50
2023-05-01T21:54:38.398Z,34.95
2023-05-01T21:57:07.515Z,34.79
2023-05-01T21:59:38.224Z,35.96
2023-05-01T22:02:09.053Z,37.38
2023-05-01T22:04:36.312Z,38.60
2023-05-01T22:07:03.676Z,39.36
2023-05-01T22:09:30.383Z,40.18
2023-05-01T22:11:58.883Z,40.92
2023-05-01T22:14:30.889Z,38.95
2023-05-01T22:17:06.859Z,39.44
2023-05-01T22:19:33.543Z,39.16
2023-05-01T22:22:00.284Z,37.85
2023-05-01T22:24:26.883Z,37.31
2023-05-01T22:26:53.532Z,39.43
2023-05-01T22:29:20.171Z,38.53
2023-05-01T22:31:46.861Z,38.15
2023-05-01T22:34:13.562Z,37.51
2023-05-01T22:36:40.250Z,39.09
2023-05-01T22:39:06.943Z,39.01
2023-05-01T22:41:33.775Z,39.39
2023-05-01T22:44:00.315Z,37.83
2023-05-01T22:46:27.352Z,38.25
2023-05-01T22:48:54.095Z,36.19
2023-05-01T22:51:20.743Z,38.40
2023-05-01T22:53:47.394Z,38.61
2023-05-01T22:56:13.975Z,37.47
2023-05-01T22:58:40.612Z,38.38
2023-05-01T23:01:07.386Z,37.64
2023-05-01T23:03:36.486Z,35.14
2023-05-01T23:06:04.947Z,35.45
2023-05-01T23:08:33.711Z,34.33
2023-05-01T23:11:00.295Z,34.33
2023-05-01T23:13:28.093Z,34.98
2023-05-01T23:15:54.881Z,32.22
2023-05-01T23:18:39.614Z,32.21
2023-05-01T23:21:06.194Z,31.44
2023-05-01T23:23:34.705Z,30.70
2023-05-01T23:26:01.915Z,31.73
2023-05-01T23:28:29.056Z,31.31
2023-05-01T23:30:57.281Z,30.70
2023-05-01T23:33:25.279Z,28.60
2023-05-01T23:35:52.036Z,28.99
2023-05-01T23:38:18.994Z,29.42
2023-05-01T23:40:46.437Z,31.44
2023-05-01T23:43:13.346Z,31.73
2023-05-01T23:45:40.195Z,33.25
2023-05-01T23:48:07.542Z,31.34
2023-05-01T23:50:34.520Z,31.02
2023-05-01T23:53:06.008Z,30.16
2023-05-01T23:55:32.818Z,31.04
2023-05-01T23:57:59.365Z,33.35
